deformed-offering

Nearby METAR Reports

 

KNUQ - Moffett Nas/Mtn, California, USA
Distance from station: N 9mi, 14km
Updated: Fri, 23-Jun-2017 5:56am PDT
Mostly Cloudy
Mostly Cloudy
 Wind from calm
Wind: Calm
Temperature: 63°F , 17°C
Dew Point: 61°F , 16°C
Humidity: 94%
Barometer: 29.87 inHg , 1011.5 hPa
Clouds: Mostly Cloudy
Visibility: 10 miles , 16 km
Cloud details: Mostly Cloudy 900 ft
2017/06/23 12:56 KNUQ 231256Z 00000KT 10SM BKN009 17/16 A2987 RMK AO2 SLP117 T01720156
KSJC - San Jose, California, USA
Distance from station: NE 9mi, 14km
Updated: Fri, 23-Jun-2017 5:53am PDT
Few Clouds
Few Clouds
 Wind from SE
Wind: SE 7 mph , 11 km/h
Temperature: 63°F , 17°C
Dew Point: 55°F , 13°C
Humidity: 77%
Barometer: 29.86 inHg , 1011.2 hPa
Clouds: Few Clouds
Visibility: 10 miles , 16 km
Cloud details: Few Clouds 700 ft
2017/06/23 12:53 KSJC 231253Z 14006KT 10SM FEW007 17/13 A2986 RMK AO2 SLP111 T01720133
 
KRHV - San Jose/Reid, California, USA
Distance from station: ENE 12mi, 19km
Updated: Thu, 22-Jun-2017 9:47pm PDT
NOT Current
Clear
Clear
 Wind from calm
Wind: Calm
Temperature: 73°F , 23°C
Dew Point: 57°F , 14°C
Humidity: 57%
Barometer: 29.81 inHg , 1009.5 hPa
Clouds: Clear
Visibility: 10 miles , 16 km
2017/06/23 04:47 KRHV 230447Z 00000KT 10SM SKC 23/14 A2981 RMK LAST
KPAO - Palo Alto, California, USA
Distance from station: NNW 14mi, 23km
Updated: Thu, 22-Jun-2017 8:47pm PDT
NOT Current
Clear
Clear
 Wind from NNW
Wind: NNW 17 mph , 28 km/h
Temperature: 68°F , 20°C
Dew Point: 63°F , 17°C
Humidity: 83%
Clouds: Clear
Visibility: 10 miles , 16 km
2017/06/23 03:47 KPAO 230347Z 33015KT 10SM SKC 20/17 A297 RMK LAST
 
KSQL - San Carlos Airpo, California, USA
Distance from station: NW 21mi, 34km
Updated: Fri, 23-Jun-2017 6:35am PDT
Overcast
Overcast
 Wind from NW
Wind: NW 3 mph , 6 km/h
Temperature: 61°F , 16°C
Dew Point: 57°F , 14°C
Humidity: 88%
Barometer: 29.88 inHg , 1011.9 hPa
Clouds: Overcast
Visibility: 10 miles , 16 km
Cloud details: Overcast 1100 ft
2017/06/23 13:35 KSQL 231335Z AUTO 31003KT 10SM OVC011 16/14 A2988 RMK AO2
KE16 - San Martin, California, USA
Distance from station: ESE 27mi, 43km
Updated: Fri, 23-Jun-2017 6:35am PDT
Overcast
Overcast
 Wind from SSE
Wind: SSE 8 mph , 13 km/h
Temperature: 55°F , 13°C
Dew Point: 54°F , 12°C
Humidity: 94%
Barometer: 29.91 inHg , 1012.9 hPa
Clouds: Overcast
Visibility: 7 miles , 11 km
Cloud details: Overcast 300 ft
2017/06/23 13:35 KE16 231335Z AUTO 15007KT 7SM OVC003 13/12 A2991 RMK AO2
 
KWVI - Watsonville, California, USA
Distance from station: SSE 27mi, 44km
Updated: Fri, 23-Jun-2017 5:53am PDT
Overcast
Overcast
 Wind from W
Wind: W 9 mph , 15 km/h
Temperature: 55°F , 13°C
Dew Point: 55°F , 13°C
Humidity: 100%
Barometer: 29.89 inHg , 1012.2 hPa
Clouds: Overcast
Visibility: 10 miles , 16 km
Cloud details: Overcast 300 ft
2017/06/23 12:53 KWVI 231253Z AUTO 27008KT 10SM OVC003 13/13 A2989 RMK AO2 SLP122 T01280128
KHWD - Hayward, California, USA
Distance from station: N 28mi, 44km
Updated: Fri, 23-Jun-2017 5:54am PDT
Clear
Clear
 Wind from NNW
Wind: NNW 6 mph , 9 km/h
Temperature: 59°F , 15°C
Dew Point: 54°F , 12°C
Humidity: 82%
Barometer: 29.86 inHg , 1011.2 hPa
Clouds: Clear
Visibility: 10 miles , 16 km
2017/06/23 12:54 KHWD 231254Z AUTO 33005KT 10SM CLR 15/12 A2986 RMK AO2 SLP121 T01500117
 
KSFO - San Francisco, California, USA
Distance from station: NW 30mi, 49km
Updated: Fri, 23-Jun-2017 5:56am PDT
Overcast
Overcast
 Wind from WNW
Wind: WNW 5 mph , 7 km/h
Temperature: 59°F , 15°C
Dew Point: 55°F , 13°C
Humidity: 88%
Barometer: 29.86 inHg , 1011.2 hPa
Clouds: Overcast
Visibility: 9 miles , 14 km
Cloud details: Overcast 800 ft
2017/06/23 12:56 KSFO 231256Z 30004KT 9SM OVC008 15/13 A2986 RMK AO2 SLP112 T01500128
KHAF - Half Moon Bay, California, USA
Distance from station: WNW 31mi, 50km
Updated: Thu, 22-Jun-2017 6:25pm PDT
NOT Current
Clear
Clear
 Wind from SSE
Wind: SSE 12 mph , 19 km/h
Temperature: 61°F , 16°C
Dew Point: 55°F , 13°C
Humidity: 83%
Barometer: 29.81 inHg , 1009.5 hPa
Clouds: Clear
Visibility: 9 miles , 14 km
2017/06/23 01:25 KHAF 230125Z AUTO 16010KT 9SM CLR 16/13 A2981 RMK AO2
 
KOAK - Oakland, California, USA
Distance from station: NNW 31mi, 50km
Updated: Fri, 23-Jun-2017 5:53am PDT
Overcast
Overcast
 Wind from N
Wind: N 7 mph , 11 km/h
Temperature: 59°F , 15°C
Dew Point: 57°F , 14°C
Humidity: 94%
Barometer: 29.87 inHg , 1011.5 hPa
Clouds: Overcast
Visibility: 10 miles , 16 km
Cloud details: Overcast 600 ft
2017/06/23 12:53 KOAK 231253Z 36006KT 10SM OVC006 15/14 A2987 RMK AO2 SLP114 T01500139
KLVK - Livermore, California, USA
Distance from station: NNE 31mi, 51km
Updated: Fri, 23-Jun-2017 5:53am PDT
Clear
Clear
 Wind from W
Wind: W 5 mph , 7 km/h
Temperature: 64°F , 18°C
Dew Point: 57°F , 14°C
Humidity: 78%
Barometer: 29.84 inHg , 1010.5 hPa
Clouds: Clear
Visibility: 10 miles , 16 km
2017/06/23 12:53 KLVK 231253Z 26004KT 10SM CLR 18/14 A2984 RMK AO2 SLP100 T01830139
 
KCVH - Hollister Muni, California, USA
Distance from station: SE 42mi, 68km
Updated: Fri, 23-Jun-2017 6:30am PDT
Overcast
Overcast
 Wind from WSW
Wind: WSW 7 mph , 11 km/h
Temperature: 55°F , 13°C
Dew Point: 54°F , 12°C
Humidity: 94%
Barometer: 29.92 inHg , 1013.2 hPa
Clouds: Overcast
Visibility: 7 miles , 11 km
Cloud details: Overcast 200 ft
2017/06/23 13:30 KCVH 231330Z AUTO 24006KT 7SM OVC002 13/12 A2992 RMK AO1
KSNS - Salinas, California, USA
Distance from station: SSE 48mi, 77km
Updated: Fri, 23-Jun-2017 5:53am PDT
Overcast
Overcast
 Wind from calm
Wind: Calm
Temperature: 57°F , 14°C
Dew Point: 55°F , 13°C
Humidity: 94%
Barometer: 29.90 inHg , 1012.5 hPa
Clouds: Overcast
Visibility: 7 miles , 11 km
Cloud details: Overcast 400 ft
2017/06/23 12:53 KSNS 231253Z 00000KT 7SM OVC004 14/13 A2990 RMK AO2 SLP132 T01390133
 
KMRY - Monterey, California, USA
Distance from station: SSE 49mi, 78km
Updated: Fri, 23-Jun-2017 5:54am PDT
Overcast
Overcast
 Wind from calm
Wind: Calm
Temperature: 55°F , 13°C
Dew Point: 55°F , 13°C
Humidity: 100%
Barometer: 29.90 inHg , 1012.5 hPa
Clouds: Overcast
Visibility: 7 miles , 11 km
Cloud details: Overcast 300 ft
2017/06/23 12:54 KMRY 231254Z 00000KT 7SM OVC003 13/13 A2990 RMK AO2 SLP137 T01280128
KCCR - Concord, California, USA
Distance from station: N 50mi, 81km
Updated: Fri, 23-Jun-2017 5:53am PDT
Clear
Clear
 Wind from WNW
Wind: WNW 6 mph , 9 km/h
Temperature: 63°F , 17°C
Dew Point: 55°F , 13°C
Humidity: 77%
Barometer: 29.83 inHg , 1010.2 hPa
Clouds: Clear
Visibility: 10 miles , 16 km
2017/06/23 12:53 KCCR 231253Z AUTO 29005KT 10SM CLR 17/13 A2983 RMK AO2 SLP088 T01720128
deformed-offering